sensor_id;sensor_type;location;lat;lon;timestamp;temperature;humidity
18974;DHT22;9621;48.690;9.466;2023-04-15T00:00:43;0.10;99.90
18974;DHT22;9621;48.690;9.466;2023-04-15T00:03:10;0.10;99.90
18974;DHT22;9621;48.690;9.466;2023-04-15T00:05:37;0.10;99.90
18974;DHT22;9621;48.690;9.466;2023-04-15T00:08:05;0.10;99.90
18974;DHT22;9621;48.690;9.466;2023-04-15T00:10:32;0.00;99.90
18974;DHT22;9621;48.690;9.466;2023-04-15T00:12:59;0.00;99.90
18974;DHT22;9621;48.690;9.466;2023-04-15T00:15:27;0.00;99.90
18974;DHT22;9621;48.690;9.466;2023-04-15T00:17:54;-0.10;99.90
18974;DHT22;9621;48.690;9.466;2023-04-15T00:20:21;0.00;99.90
18974;DHT22;9621;48.690;9.466;2023-04-15T00:22:48;0.00;99.90
18974;DHT22;9621;48.690;9.466;2023-04-15T00:25:17;0.00;99.90
18974;DHT22;9621;48.690;9.466;2023-04-15T00:27:43;0.00;99.90
18974;DHT22;9621;48.690;9.466;2023-04-15T00:30:10;0.00;99.90
18974;DHT22;9621;48.690;9.466;2023-04-15T00:32:37;-0.10;99.90
18974;DHT22;9621;48.690;9.466;2023-04-15T00:35:05;-0.10;99.90
18974;DHT22;9621;48.690;9.466;2023-04-15T00:37:32;-0.10;99.90
18974;DHT22;9621;48.690;9.466;2023-04-15T00:39:59;-0.10;99.90
18974;DHT22;9621;48.690;9.466;2023-04-15T00:42:28;-0.20;99.90
18974;DHT22;9621;48.690;9.466;2023-04-15T00:44:55;-0.30;99.90
18974;DHT22;9621;48.690;9.466;2023-04-15T00:47:22;-0.30;99.90
18974;DHT22;9621;48.690;9.466;2023-04-15T00:49:49;-0.30;99.90
18974;DHT22;9621;48.690;9.466;2023-04-15T00:52:16;-0.30;99.90
18974;DHT22;9621;48.690;9.466;2023-04-15T00:54:43;-0.30;99.90
18974;DHT22;9621;48.690;9.466;2023-04-15T00:57:10;-0.30;99.90
18974;DHT22;9621;48.690;9.466;2023-04-15T00:59:39;-0.40;99.90
18974;DHT22;9621;48.690;9.466;2023-04-15T01:02:06;-0.40;99.90
18974;DHT22;9621;48.690;9.466;2023-04-15T01:04:33;-0.40;99.90
18974;DHT22;9621;48.690;9.466;2023-04-15T01:07:01;-0.50;99.90
18974;DHT22;9621;48.690;9.466;2023-04-15T01:09:28;-0.50;99.90
18974;DHT22;9621;48.690;9.466;2023-04-15T01:11:55;-0.50;99.90
18974;DHT22;9621;48.690;9.466;2023-04-15T01:14:23;-0.60;99.90
18974;DHT22;9621;48.690;9.466;2023-04-15T01:16:53;-0.60;99.90
18974;DHT22;9621;48.690;9.466;2023-04-15T01:19:19;-0.70;99.90
18974;DHT22;9621;48.690;9.466;2023-04-15T01:21:47;-0.60;99.90
18974;DHT22;9621;48.690;9.466;2023-04-15T01:24:17;-0.70;99.90
18974;DHT22;9621;48.690;9.466;2023-04-15T01:26:46;-0.70;99.90
18974;DHT22;9621;48.690;9.466;2023-04-15T01:29:14;-0.80;99.90
18974;DHT22;9621;48.690;9.466;2023-04-15T01:31:48;-0.90;99.90
18974;DHT22;9621;48.690;9.466;2023-04-15T01:34:16;-0.90;99.90
18974;DHT22;9621;48.690;9.466;2023-04-15T01:36:43;-0.90;99.90
18974;DHT22;9621;48.690;9.466;2023-04-15T01:39:10;-1.00;99.90
18974;DHT22;9621;48.690;9.466;2023-04-15T01:41:37;-1.00;99.90
18974;DHT22;9621;48.690;9.466;2023-04-15T01:44:06;-1.00;99.90
18974;DHT22;9621;48.690;9.466;2023-04-15T01:46:34;-1.00;99.90
18974;DHT22;9621;48.690;9.466;2023-04-15T01:49:01;-1.10;99.90
18974;DHT22;9621;48.690;9.466;2023-04-15T01:51:28;-1.10;99.90
18974;DHT22;9621;48.690;9.466;2023-04-15T01:53:56;-1.00;99.90
18974;DHT22;9621;48.690;9.466;2023-04-15T01:56:23;-1.10;99.90
18974;DHT22;9621;48.690;9.466;2023-04-15T01:58:51;-1.00;99.90
18974;DHT22;9621;48.690;9.466;2023-04-15T02:01:19;-1.10;99.90
18974;DHT22;9621;48.690;9.466;2023-04-15T02:03:46;-1.10;99.90
18974;DHT22;9621;48.690;9.466;2023-04-15T02:06:14;-1.10;99.90
18974;DHT22;9621;48.690;9.466;2023-04-15T02:08:41;-1.20;99.90
18974;DHT22;9621;48.690;9.466;2023-04-15T02:11:08;-1.20;99.90
18974;DHT22;9621;48.690;9.466;2023-04-15T02:13:35;-1.20;99.90
18974;DHT22;9621;48.690;9.466;2023-04-15T02:16:03;-1.20;99.90
18974;DHT22;9621;48.690;9.466;2023-04-15T02:18:31;-1.20;99.90
18974;DHT22;9621;48.690;9.466;2023-04-15T02:20:58;-1.20;99.90
18974;DHT22;9621;48.690;9.466;2023-04-15T02:23:25;-1.20;99.90
18974;DHT22;9621;48.690;9.466;2023-04-15T02:25:51;-1.20;99.90
18974;DHT22;9621;48.690;9.466;2023-04-15T02:28:18;-1.20;99.90
18974;DHT22;9621;48.690;9.466;2023-04-15T02:30:47;-1.20;99.90
18974;DHT22;9621;48.690;9.466;2023-04-15T02:33:15;-1.30;99.90
18974;DHT22;9621;48.690;9.466;2023-04-15T02:35:43;-1.30;99.90
18974;DHT22;9621;48.690;9.466;2023-04-15T02:38:11;-1.40;99.90
18974;DHT22;9621;48.690;9.466;2023-04-15T02:40:38;-1.40;99.90
18974;DHT22;9621;48.690;9.466;2023-04-15T02:43:05;-1.40;99.90
18974;DHT22;9621;48.690;9.466;2023-04-15T02:45:32;-1.40;99.90
18974;DHT22;9621;48.690;9.466;2023-04-15T02:47:59;-1.40;99.90
18974;DHT22;9621;48.690;9.466;2023-04-15T02:50:30;-1.50;99.90
18974;DHT22;9621;48.690;9.466;2023-04-15T02:52:59;-1.50;99.90
18974;DHT22;9621;48.690;9.466;2023-04-15T02:55:27;-1.50;99.90
18974;DHT22;9621;48.690;9.466;2023-04-15T02:57:54;-1.50;99.90
18974;DHT22;9621;48.690;9.466;2023-04-15T03:00:21;-1.60;99.90
18974;DHT22;9621;48.690;9.466;2023-04-15T03:02:49;-1.60;99.90
18974;DHT22;9621;48.690;9.466;2023-04-15T03:05:20;-1.60;99.90
18974;DHT22;9621;48.690;9.466;2023-04-15T03:07:49;-1.60;99.90
18974;DHT22;9621;48.690;9.466;2023-04-15T03:10:17;-1.60;99.90
18974;DHT22;9621;48.690;9.466;2023-04-15T03:12:44;-1.50;99.90
18974;DHT22;9621;48.690;9.466;2023-04-15T03:15:11;-1.50;99.90
18974;DHT22;9621;48.690;9.466;2023-04-15T03:17:38;-1.50;99.90
18974;DHT22;9621;48.690;9.466;2023-04-15T03:20:06;-1.40;99.90
18974;DHT22;9621;48.690;9.466;2023-04-15T03:22:34;-1.40;99.90
18974;DHT22;9621;48.690;9.466;2023-04-15T03:25:00;-1.40;99.90
18974;DHT22;9621;48.690;9.466;2023-04-15T03:27:29;-1.40;99.90
18974;DHT22;9621;48.690;9.466;2023-04-15T03:29:56;-1.40;99.90
18974;DHT22;9621;48.690;9.466;2023-04-15T03:32:23;-1.40;99.90
18974;DHT22;9621;48.690;9.466;2023-04-15T03:34:50;-1.30;99.90
18974;DHT22;9621;48.690;9.466;2023-04-15T03:37:17;-1.30;99.90
18974;DHT22;9621;48.690;9.466;2023-04-15T03:39:44;-1.30;99.90
18974;DHT22;9621;48.690;9.466;2023-04-15T03:42:11;-1.30;99.90
18974;DHT22;9621;48.690;9.466;2023-04-15T03:44:39;-1.20;99.90
18974;DHT22;9621;48.690;9.466;2023-04-15T03:47:06;-1.30;99.90
18974;DHT22;9621;48.690;9.466;2023-04-15T03:49:34;-1.30;99.90
18974;DHT22;9621;48.690;9.466;2023-04-15T03:52:01;-1.30;99.90
18974;DHT22;9621;48.690;9.466;2023-04-15T03:54:28;-1.30;99.90
18974;DHT22;9621;48.690;9.466;2023-04-15T03:56:56;-1.30;99.90
18974;DHT22;9621;48.690;9.466;2023-04-15T03:59:23;-1.30;99.90
18974;DHT22;9621;48.690;9.466;2023-04-15T04:01:51;-1.30;99.90
18974;DHT22;9621;48.690;9.466;2023-04-15T04:04:18;-1.30;99.90
18974;DHT22;9621;48.690;9.466;2023-04-15T04:06:45;-1.30;99.90
18974;DHT22;9621;48.690;9.466;2023-04-15T04:09:12;-1.30;99.90
18974;DHT22;9621;48.690;9.466;2023-04-15T04:11:39;-1.30;99.90
18974;DHT22;9621;48.690;9.466;2023-04-15T04:14:06;-1.30;99.90
18974;DHT22;9621;48.690;9.466;2023-04-15T04:16:33;-1.30;99.90
18974;DHT22;9621;48.690;9.466;2023-04-15T04:19:01;-1.30;99.90
18974;DHT22;9621;48.690;9.466;2023-04-15T04:21:28;-1.40;99.90
18974;DHT22;9621;48.690;9.466;2023-04-15T04:23:55;-1.30;99.90
18974;DHT22;9621;48.690;9.466;2023-04-15T04:26:23;-1.40;99.90
18974;DHT22;9621;48.690;9.466;2023-04-15T04:28:50;-1.40;99.90
18974;DHT22;9621;48.690;9.466;2023-04-15T04:31:17;-1.40;99.90
18974;DHT22;9621;48.690;9.466;2023-04-15T04:33:45;-1.50;99.90
18974;DHT22;9621;48.690;9.466;2023-04-15T04:36:13;-1.60;99.90
18974;DHT22;9621;48.690;9.466;2023-04-15T04:38:40;-1.60;99.90
18974;DHT22;9621;48.690;9.466;2023-04-15T04:41:07;-1.60;99.90
18974;DHT22;9621;48.690;9.466;2023-04-15T04:43:34;-1.60;99.90
18974;DHT22;9621;48.690;9.466;2023-04-15T04:46:01;-1.60;99.90
18974;DHT22;9621;48.690;9.466;2023-04-15T04:48:28;-1.70;99.90
18974;DHT22;9621;48.690;9.466;2023-04-15T04:50:55;-1.70;99.90
18974;DHT22;9621;48.690;9.466;2023-04-15T04:53:23;-1.70;99.90
18974;DHT22;9621;48.690;9.466;2023-04-15T04:55:50;-1.70;99.90
18974;DHT22;9621;48.690;9.466;2023-04-15T04:58:17;-1.70;99.90
18974;DHT22;9621;48.690;9.466;2023-04-15T05:00:43;-1.70;99.90
18974;DHT22;9621;48.690;9.466;2023-04-15T05:03:11;-1.70;99.90
18974;DHT22;9621;48.690;9.466;2023-04-15T05:05:38;-1.70;99.90
18974;DHT22;9621;48.690;9.466;2023-04-15T05:08:06;-1.70;99.90
18974;DHT22;9621;48.690;9.466;2023-04-15T05:10:34;-1.70;99.90
18974;DHT22;9621;48.690;9.466;2023-04-15T05:13:01;-1.60;99.90
18974;DHT22;9621;48.690;9.466;2023-04-15T05:15:28;-1.60;99.90
18974;DHT22;9621;48.690;9.466;2023-04-15T05:17:55;-1.60;99.90
18974;DHT22;9621;48.690;9.466;2023-04-15T05:20:22;-1.50;99.90
18974;DHT22;9621;48.690;9.466;2023-04-15T05:22:49;-1.50;99.90
18974;DHT22;9621;48.690;9.466;2023-04-15T05:25:16;-1.50;99.90
18974;DHT22;9621;48.690;9.466;2023-04-15T05:27:45;-1.40;99.90
18974;DHT22;9621;48.690;9.466;2023-04-15T05:30:12;-1.50;99.90
18974;DHT22;9621;48.690;9.466;2023-04-15T05:32:39;-1.40;99.90
18974;DHT22;9621;48.690;9.466;2023-04-15T05:35:06;-1.40;99.90
18974;DHT22;9621;48.690;9.466;2023-04-15T05:37:33;-1.30;99.90
18974;DHT22;9621;48.690;9.466;2023-04-15T05:40:00;-1.30;99.90
18974;DHT22;9621;48.690;9.466;2023-04-15T05:42:28;-1.30;99.90
18974;DHT22;9621;48.690;9.466;2023-04-15T05:44:57;-1.20;99.90
18974;DHT22;9621;48.690;9.466;2023-04-15T05:47:24;-1.10;99.90
18974;DHT22;9621;48.690;9.466;2023-04-15T05:49:51;-1.00;99.90
18974;DHT22;9621;48.690;9.466;2023-04-15T05:52:20;-0.80;99.90
18974;DHT22;9621;48.690;9.466;2023-04-15T05:54:46;-0.60;99.90
18974;DHT22;9621;48.690;9.466;2023-04-15T05:57:13;-0.30;99.90
18974;DHT22;9621;48.690;9.466;2023-04-15T05:59:40;-0.10;99.90
18974;DHT22;9621;48.690;9.466;2023-04-15T06:02:09;0.20;99.90
18974;DHT22;9621;48.690;9.466;2023-04-15T06:04:36;0.50;99.90
18974;DHT22;9621;48.690;9.466;2023-04-15T06:07:03;0.60;99.90
18974;DHT22;9621;48.690;9.466;2023-04-15T06:09:30;0.80;99.90
18974;DHT22;9621;48.690;9.466;2023-04-15T06:11:58;1.00;99.90
18974;DHT22;9621;48.690;9.466;2023-04-15T06:14:26;1.10;99.90
18974;DHT22;9621;48.690;9.466;2023-04-15T06:16:52;1.40;99.90
18974;DHT22;9621;48.690;9.466;2023-04-15T06:19:21;1.60;99.90
18974;DHT22;9621;48.690;9.466;2023-04-15T06:21:48;1.80;99.90
18974;DHT22;9621;48.690;9.466;2023-04-15T06:24:15;2.00;99.90
18974;DHT22;9621;48.690;9.466;2023-04-15T06:26:42;2.30;99.90
18974;DHT22;9621;48.690;9.466;2023-04-15T06:29:09;2.60;99.90
18974;DHT22;9621;48.690;9.466;2023-04-15T06:31:35;3.10;99.90
18974;DHT22;9621;48.690;9.466;2023-04-15T06:34:03;3.20;99.90
18974;DHT22;9621;48.690;9.466;2023-04-15T06:36:31;3.40;99.90
18974;DHT22;9621;48.690;9.466;2023-04-15T06:38:58;3.60;99.90
18974;DHT22;9621;48.690;9.466;2023-04-15T06:41:25;3.70;99.90
18974;DHT22;9621;48.690;9.466;2023-04-15T06:43:52;3.80;99.90
18974;DHT22;9621;48.690;9.466;2023-04-15T06:46:19;3.90;99.90
18974;DHT22;9621;48.690;9.466;2023-04-15T06:48:46;4.00;99.90
18974;DHT22;9621;48.690;9.466;2023-04-15T06:51:13;4.10;99.90
18974;DHT22;9621;48.690;9.466;2023-04-15T06:53:41;4.20;99.90
18974;DHT22;9621;48.690;9.466;2023-04-15T06:56:08;4.30;99.90
18974;DHT22;9621;48.690;9.466;2023-04-15T06:58:35;4.60;99.90
18974;DHT22;9621;48.690;9.466;2023-04-15T07:01:02;4.70;99.90
18974;DHT22;9621;48.690;9.466;2023-04-15T07:03:30;4.80;99.90
18974;DHT22;9621;48.690;9.466;2023-04-15T07:05:57;4.90;99.90
18974;DHT22;9621;48.690;9.466;2023-04-15T07:08:24;5.00;99.90
18974;DHT22;9621;48.690;9.466;2023-04-15T07:10:52;5.10;99.90
18974;DHT22;9621;48.690;9.466;2023-04-15T07:13:19;5.20;99.90
18974;DHT22;9621;48.690;9.466;2023-04-15T07:15:46;5.40;99.90
18974;DHT22;9621;48.690;9.466;2023-04-15T07:18:13;5.50;99.90
18974;DHT22;9621;48.690;9.466;2023-04-15T07:20:40;5.60;99.90
18974;DHT22;9621;48.690;9.466;2023-04-15T07:23:07;5.70;99.90
18974;DHT22;9621;48.690;9.466;2023-04-15T07:25:34;5.90;99.90
18974;DHT22;9621;48.690;9.466;2023-04-15T07:28:03;6.10;99.90
18974;DHT22;9621;48.690;9.466;2023-04-15T07:30:29;6.30;99.90
18974;DHT22;9621;48.690;9.466;2023-04-15T07:32:57;6.50;99.90
18974;DHT22;9621;48.690;9.466;2023-04-15T07:35:24;6.70;99.90
18974;DHT22;9621;48.690;9.466;2023-04-15T07:37:52;6.80;99.90
18974;DHT22;9621;48.690;9.466;2023-04-15T07:40:18;7.00;99.90
18974;DHT22;9621;48.690;9.466;2023-04-15T07:42:47;7.10;99.90
18974;DHT22;9621;48.690;9.466;2023-04-15T07:45:15;7.30;99.90
18974;DHT22;9621;48.690;9.466;2023-04-15T07:47:42;7.40;99.90
18974;DHT22;9621;48.690;9.466;2023-04-15T07:50:09;7.60;99.90
18974;DHT22;9621;48.690;9.466;2023-04-15T07:52:36;7.80;99.90
18974;DHT22;9621;48.690;9.466;2023-04-15T07:55:05;8.10;99.90
18974;DHT22;9621;48.690;9.466;2023-04-15T07:57:32;8.30;99.90
18974;DHT22;9621;48.690;9.466;2023-04-15T07:59:59;8.70;99.90
18974;DHT22;9621;48.690;9.466;2023-04-15T08:02:28;9.10;99.90
18974;DHT22;9621;48.690;9.466;2023-04-15T08:04:54;9.60;99.90
18974;DHT22;9621;48.690;9.466;2023-04-15T08:07:22;10.00;99.90
18974;DHT22;9621;48.690;9.466;2023-04-15T08:09:49;10.50;99.90
18974;DHT22;9621;48.690;9.466;2023-04-15T08:12:16;11.00;99.90
18974;DHT22;9621;48.690;9.466;2023-04-15T08:14:43;11.50;99.90
18974;DHT22;9621;48.690;9.466;2023-04-15T08:17:11;11.80;99.90
18974;DHT22;9621;48.690;9.466;2023-04-15T08:19:40;12.00;99.90
18974;DHT22;9621;48.690;9.466;2023-04-15T08:22:06;12.20;99.90
18974;DHT22;9621;48.690;9.466;2023-04-15T08:24:34;12.50;99.90
18974;DHT22;9621;48.690;9.466;2023-04-15T08:27:01;12.90;99.90
18974;DHT22;9621;48.690;9.466;2023-04-15T08:29:30;13.30;99.90
18974;DHT22;9621;48.690;9.466;2023-04-15T08:31:58;13.80;99.90
18974;DHT22;9621;48.690;9.466;2023-04-15T08:34:25;14.20;99.90
18974;DHT22;9621;48.690;9.466;2023-04-15T08:36:54;14.60;99.90
18974;DHT22;9621;48.690;9.466;2023-04-15T08:39:21;15.00;99.90
18974;DHT22;9621;48.690;9.466;2023-04-15T08:41:55;15.50;99.90
18974;DHT22;9621;48.690;9.466;2023-04-15T08:44:23;15.90;99.90
18974;DHT22;9621;48.690;9.466;2023-04-15T08:46:51;16.40;99.90
18974;DHT22;9621;48.690;9.466;2023-04-15T08:49:20;16.80;99.90
18974;DHT22;9621;48.690;9.466;2023-04-15T08:51:48;17.00;99.90
18974;DHT22;9621;48.690;9.466;2023-04-15T08:54:17;17.20;99.90
18974;DHT22;9621;48.690;9.466;2023-04-15T08:56:45;17.40;99.90
18974;DHT22;9621;48.690;9.466;2023-04-15T08:59:12;17.70;99.90
18974;DHT22;9621;48.690;9.466;2023-04-15T09:01:39;18.10;99.90
18974;DHT22;9621;48.690;9.466;2023-04-15T09:04:06;18.50;99.90
18974;DHT22;9621;48.690;9.466;2023-04-15T09:06:34;18.80;99.90
18974;DHT22;9621;48.690;9.466;2023-04-15T09:09:01;18.90;99.90
18974;DHT22;9621;48.690;9.466;2023-04-15T09:11:30;18.90;99.90
18974;DHT22;9621;48.690;9.466;2023-04-15T09:13:57;19.00;99.90
18974;DHT22;9621;48.690;9.466;2023-04-15T09:16:24;19.00;99.90
18974;DHT22;9621;48.690;9.466;2023-04-15T09:18:52;19.00;99.90
18974;DHT22;9621;48.690;9.466;2023-04-15T09:21:19;18.90;99.90
18974;DHT22;9621;48.690;9.466;2023-04-15T09:23:55;18.80;99.90
18974;DHT22;9621;48.690;9.466;2023-04-15T09:26:31;18.70;99.80
18974;DHT22;9621;48.690;9.466;2023-04-15T09:29:03;18.70;99.00
18974;DHT22;9621;48.690;9.466;2023-04-15T09:31:31;18.60;99.90
18974;DHT22;9621;48.690;9.466;2023-04-15T09:33:58;18.40;99.90
18974;DHT22;9621;48.690;9.466;2023-04-15T09:36:25;18.20;99.90
18974;DHT22;9621;48.690;9.466;2023-04-15T09:38:55;18.00;99.90
18974;DHT22;9621;48.690;9.466;2023-04-15T09:41:23;17.80;99.90
18974;DHT22;9621;48.690;9.466;2023-04-15T09:43:51;17.70;99.90
18974;DHT22;9621;48.690;9.466;2023-04-15T09:46:18;17.60;99.90
18974;DHT22;9621;48.690;9.466;2023-04-15T09:48:45;17.80;99.90
18974;DHT22;9621;48.690;9.466;2023-04-15T09:51:12;17.90;99.90
18974;DHT22;9621;48.690;9.466;2023-04-15T09:53:40;18.10;99.90
18974;DHT22;9621;48.690;9.466;2023-04-15T09:56:07;18.40;99.90
18974;DHT22;9621;48.690;9.466;2023-04-15T09:58:35;18.70;99.90
18974;DHT22;9621;48.690;9.466;2023-04-15T10:01:05;18.90;99.90
18974;DHT22;9621;48.690;9.466;2023-04-15T10:03:33;19.20;99.90
18974;DHT22;9621;48.690;9.466;2023-04-15T10:06:01;19.40;99.90
18974;DHT22;9621;48.690;9.466;2023-04-15T10:08:32;19.50;99.90
18974;DHT22;9621;48.690;9.466;2023-04-15T10:11:01;19.50;99.90
18974;DHT22;9621;48.690;9.466;2023-04-15T10:13:30;19.40;99.90
18974;DHT22;9621;48.690;9.466;2023-04-15T10:16:06;19.10;98.40
18974;DHT22;9621;48.690;9.466;2023-04-15T10:18:34;18.70;97.90
18974;DHT22;9621;48.690;9.466;2023-04-15T10:21:03;18.50;98.90
18974;DHT22;9621;48.690;9.466;2023-04-15T10:23:31;18.50;99.90
18974;DHT22;9621;48.690;9.466;2023-04-15T10:25:59;18.50;99.00
18974;DHT22;9621;48.690;9.466;2023-04-15T10:28:26;18.50;99.60
18974;DHT22;9621;48.690;9.466;2023-04-15T10:30:53;18.60;97.90
18974;DHT22;9621;48.690;9.466;2023-04-15T10:33:24;18.50;97.60
18974;DHT22;9621;48.690;9.466;2023-04-15T10:35:52;18.20;95.80
18974;DHT22;9621;48.690;9.466;2023-04-15T10:38:36;18.00;96.70
18974;DHT22;9621;48.690;9.466;2023-04-15T10:41:15;17.70;92.60
18974;DHT22;9621;48.690;9.466;2023-04-15T10:43:47;17.50;94.00
18974;DHT22;9621;48.690;9.466;2023-04-15T10:46:17;17.30;96.40
18974;DHT22;9621;48.690;9.466;2023-04-15T10:48:51;17.30;97.10
18974;DHT22;9621;48.690;9.466;2023-04-15T10:51:29;17.30;94.80
18974;DHT22;9621;48.690;9.466;2023-04-15T10:53:58;17.20;94.40
18974;DHT22;9621;48.690;9.466;2023-04-15T10:56:26;17.20;98.40
18974;DHT22;9621;48.690;9.466;2023-04-15T10:58:53;17.10;98.00
18974;DHT22;9621;48.690;9.466;2023-04-15T11:01:21;16.90;97.90
18974;DHT22;9621;48.690;9.466;2023-04-15T11:03:50;16.80;98.50
18974;DHT22;9621;48.690;9.466;2023-04-15T11:06:16;16.70;98.60
18974;DHT22;9621;48.690;9.466;2023-04-15T11:08:57;16.70;99.00
18974;DHT22;9621;48.690;9.466;2023-04-15T11:14:27;16.50;92.50
18974;DHT22;9621;48.690;9.466;2023-04-15T11:16:54;16.40;98.80
18974;DHT22;9621;48.690;9.466;2023-04-15T11:19:22;16.30;98.70
18974;DHT22;9621;48.690;9.466;2023-04-15T11:21:49;16.20;97.10
18974;DHT22;9621;48.690;9.466;2023-04-15T11:24:23;16.20;99.10
18974;DHT22;9621;48.690;9.466;2023-04-15T11:26:56;16.10;96.20
18974;DHT22;9621;48.690;9.466;2023-04-15T11:29:28;16.10;97.20
18974;DHT22;9621;48.690;9.466;2023-04-15T11:32:04;16.00;97.50
18974;DHT22;9621;48.690;9.466;2023-04-15T11:34:33;15.80;95.70
18974;DHT22;9621;48.690;9.466;2023-04-15T11:37:03;15.70;98.20
18974;DHT22;9621;48.690;9.466;2023-04-15T11:39:32;15.60;96.70
18974;DHT22;9621;48.690;9.466;2023-04-15T11:41:59;15.60;98.40
18974;DHT22;9621;48.690;9.466;2023-04-15T11:44:26;15.40;97.80
18974;DHT22;9621;48.690;9.466;2023-04-15T11:46:54;15.40;98.20
18974;DHT22;9621;48.690;9.466;2023-04-15T11:49:28;15.20;97.50
18974;DHT22;9621;48.690;9.466;2023-04-15T11:51:57;15.20;95.30
18974;DHT22;9621;48.690;9.466;2023-04-15T11:54:25;15.30;98.20
18974;DHT22;9621;48.690;9.466;2023-04-15T11:56:51;15.50;99.40
18974;DHT22;9621;48.690;9.466;2023-04-15T11:59:19;15.80;99.70
18974;DHT22;9621;48.690;9.466;2023-04-15T12:01:46;16.10;99.50
18974;DHT22;9621;48.690;9.466;2023-04-15T12:04:15;16.30;98.90
18974;DHT22;9621;48.690;9.466;2023-04-15T12:06:44;16.40;96.10
18974;DHT22;9621;48.690;9.466;2023-04-15T12:09:13;16.40;96.10
18974;DHT22;9621;48.690;9.466;2023-04-15T12:11:43;16.30;95.00
18974;DHT22;9621;48.690;9.466;2023-04-15T12:14:20;16.20;95.50
18974;DHT22;9621;48.690;9.466;2023-04-15T12:16:48;16.10;94.50
18974;DHT22;9621;48.690;9.466;2023-04-15T12:19:19;16.00;96.00
18974;DHT22;9621;48.690;9.466;2023-04-15T12:21:48;15.90;95.70
18974;DHT22;9621;48.690;9.466;2023-04-15T12:24:20;15.70;96.40
18974;DHT22;9621;48.690;9.466;2023-04-15T12:26:49;15.50;95.10
18974;DHT22;9621;48.690;9.466;2023-04-15T12:29:16;15.30;96.50
18974;DHT22;9621;48.690;9.466;2023-04-15T12:31:48;15.20;97.20
18974;DHT22;9621;48.690;9.466;2023-04-15T12:34:16;14.90;95.50
18974;DHT22;9621;48.690;9.466;2023-04-15T12:36:44;14.70;96.30
18974;DHT22;9621;48.690;9.466;2023-04-15T12:39:12;14.40;97.10
18974;DHT22;9621;48.690;9.466;2023-04-15T12:41:40;14.10;96.90
18974;DHT22;9621;48.690;9.466;2023-04-15T12:44:07;13.90;95.70
18974;DHT22;9621;48.690;9.466;2023-04-15T12:46:34;13.60;97.60
18974;DHT22;9621;48.690;9.466;2023-04-15T12:49:01;13.20;98.10
18974;DHT22;9621;48.690;9.466;2023-04-15T12:51:29;12.90;98.90
18974;DHT22;9621;48.690;9.466;2023-04-15T12:53:57;12.50;99.60
18974;DHT22;9621;48.690;9.466;2023-04-15T12:56:24;12.20;99.70
18974;DHT22;9621;48.690;9.466;2023-04-15T12:58:53;12.00;99.80
18974;DHT22;9621;48.690;9.466;2023-04-15T13:01:20;11.80;98.80
18974;DHT22;9621;48.690;9.466;2023-04-15T13:03:47;11.60;98.80
18974;DHT22;9621;48.690;9.466;2023-04-15T13:06:15;11.40;98.10
18974;DHT22;9621;48.690;9.466;2023-04-15T13:08:42;11.10;97.60
18974;DHT22;9621;48.690;9.466;2023-04-15T13:11:09;10.90;97.50
18974;DHT22;9621;48.690;9.466;2023-04-15T13:13:36;10.70;98.20
18974;DHT22;9621;48.690;9.466;2023-04-15T13:16:05;10.40;98.60
18974;DHT22;9621;48.690;9.466;2023-04-15T13:18:32;10.20;98.10
18974;DHT22;9621;48.690;9.466;2023-04-15T13:21:00;10.00;99.10
18974;DHT22;9621;48.690;9.466;2023-04-15T13:23:27;9.80;99.10
18974;DHT22;9621;48.690;9.466;2023-04-15T13:25:54;9.60;99.90
18974;DHT22;9621;48.690;9.466;2023-04-15T13:28:21;9.40;99.90
18974;DHT22;9621;48.690;9.466;2023-04-15T13:30:48;9.30;99.90
18974;DHT22;9621;48.690;9.466;2023-04-15T13:33:17;9.20;99.90
18974;DHT22;9621;48.690;9.466;2023-04-15T13:35:44;9.10;99.90
18974;DHT22;9621;48.690;9.466;2023-04-15T13:38:11;9.10;99.90
18974;DHT22;9621;48.690;9.466;2023-04-15T13:40:38;9.20;99.90
18974;DHT22;9621;48.690;9.466;2023-04-15T13:43:05;9.20;99.90
18974;DHT22;9621;48.690;9.466;2023-04-15T13:45:32;9.20;99.90
18974;DHT22;9621;48.690;9.466;2023-04-15T13:47:59;9.30;99.90
18974;DHT22;9621;48.690;9.466;2023-04-15T13:50:28;9.40;99.90
18974;DHT22;9621;48.690;9.466;2023-04-15T13:52:55;9.40;99.90
18974;DHT22;9621;48.690;9.466;2023-04-15T13:55:22;9.50;99.90
18974;DHT22;9621;48.690;9.466;2023-04-15T13:57:49;9.70;99.90
18974;DHT22;9621;48.690;9.466;2023-04-15T14:00:16;9.70;99.90
18974;DHT22;9621;48.690;9.466;2023-04-15T14:02:43;9.90;99.90
18974;DHT22;9621;48.690;9.466;2023-04-15T14:05:10;10.10;99.90
18974;DHT22;9621;48.690;9.466;2023-04-15T14:07:39;10.30;99.90
18974;DHT22;9621;48.690;9.466;2023-04-15T14:10:07;10.40;99.90
18974;DHT22;9621;48.690;9.466;2023-04-15T14:12:34;10.50;99.90
18974;DHT22;9621;48.690;9.466;2023-04-15T14:15:01;10.60;99.90
18974;DHT22;9621;48.690;9.466;2023-04-15T14:17:28;10.60;99.90
18974;DHT22;9621;48.690;9.466;2023-04-15T14:19:55;10.60;99.30
18974;DHT22;9621;48.690;9.466;2023-04-15T14:22:21;10.60;98.90
18974;DHT22;9621;48.690;9.466;2023-04-15T14:24:50;10.50;99.30
18974;DHT22;9621;48.690;9.466;2023-04-15T14:27:20;10.50;98.00
18974;DHT22;9621;48.690;9.466;2023-04-15T14:29:47;10.50;98.60
18974;DHT22;9621;48.690;9.466;2023-04-15T14:32:14;10.50;98.70
18974;DHT22;9621;48.690;9.466;2023-04-15T14:34:41;10.40;98.70
18974;DHT22;9621;48.690;9.466;2023-04-15T14:37:08;10.40;99.20
18974;DHT22;9621;48.690;9.466;2023-04-15T14:39:34;10.40;98.90
18974;DHT22;9621;48.690;9.466;2023-04-15T14:42:03;10.50;99.10
18974;DHT22;9621;48.690;9.466;2023-04-15T14:44:30;10.50;98.70
18974;DHT22;9621;48.690;9.466;2023-04-15T14:46:57;10.60;99.80
18974;DHT22;9621;48.690;9.466;2023-04-15T14:49:24;10.60;98.70
18974;DHT22;9621;48.690;9.466;2023-04-15T14:51:51;10.70;98.70
18974;DHT22;9621;48.690;9.466;2023-04-15T14:54:18;10.70;98.70
18974;DHT22;9621;48.690;9.466;2023-04-15T14:56:45;10.60;98.50
18974;DHT22;9621;48.690;9.466;2023-04-15T14:59:14;10.60;98.40
18974;DHT22;9621;48.690;9.466;2023-04-15T15:01:40;10.60;98.20
18974;DHT22;9621;48.690;9.466;2023-04-15T15:04:09;10.60;98.70
18974;DHT22;9621;48.690;9.466;2023-04-15T15:06:36;10.60;97.90
18974;DHT22;9621;48.690;9.466;2023-04-15T15:09:03;10.50;98.60
18974;DHT22;9621;48.690;9.466;2023-04-15T15:11:30;10.50;98.60
18974;DHT22;9621;48.690;9.466;2023-04-15T15:13:57;10.50;98.70
18974;DHT22;9621;48.690;9.466;2023-04-15T15:16:25;10.50;98.80
18974;DHT22;9621;48.690;9.466;2023-04-15T15:18:54;10.40;98.10
18974;DHT22;9621;48.690;9.466;2023-04-15T15:21:21;10.40;98.90
18974;DHT22;9621;48.690;9.466;2023-04-15T15:23:48;10.40;99.50
18974;DHT22;9621;48.690;9.466;2023-04-15T15:26:15;10.40;99.60
18974;DHT22;9621;48.690;9.466;2023-04-15T15:28:42;10.40;99.00
18974;DHT22;9621;48.690;9.466;2023-04-15T15:31:10;10.40;99.00
18974;DHT22;9621;48.690;9.466;2023-04-15T15:33:38;10.30;99.40
18974;DHT22;9621;48.690;9.466;2023-04-15T15:36:05;10.30;99.00
18974;DHT22;9621;48.690;9.466;2023-04-15T15:38:32;10.20;99.50
18974;DHT22;9621;48.690;9.466;2023-04-15T15:40:59;10.20;99.30
18974;DHT22;9621;48.690;9.466;2023-04-15T15:43:26;10.20;99.40
18974;DHT22;9621;48.690;9.466;2023-04-15T15:45:54;10.10;99.20
18974;DHT22;9621;48.690;9.466;2023-04-15T15:48:22;10.10;99.30
18974;DHT22;9621;48.690;9.466;2023-04-15T15:50:50;10.00;99.00
18974;DHT22;9621;48.690;9.466;2023-04-15T15:53:18;9.90;99.10
18974;DHT22;9621;48.690;9.466;2023-04-15T15:55:46;9.80;99.80